Tonasket, WA (98855)

4:10 PM PST on December 19, 2014 (GMT -0800)
Mt. Hull | Change Station
CLOSE
Current Station
Personal Weather Station
Location: Tonasket, WA
Elevation: 2995 ft
Nearby Weather Stations

Elev 2995 ft 48.83 °N, 119.33 °W | Updated 9 minutes ago

Overcast
Overcast
31.2 °F
Feels Like 31 °F
N
0.0
Wind Variable Wind from SSW
Gusts 0.0 mph

Today
High -- | Low -- °F
--% Chance of Precip.
Yesterday
High -- | Low -- °F
Precip. -- in
7:46 AM 4:02 PM
Waning Crescent, 5% visible
Pressure 29.99 in
Visibility 10.0 miles
Clouds Overcast 1800 ft
Windchill 31 °F
Dew Point 31 °F
Humidity 98%
Rainfall 0.20 in
Snow Depth Not available.
UV 0.0 out of 12
Pollen .10 out of 12
Air Quality Not available.
Flu Activity Not available.
METAR KOMK 192353Z AUTO 11004KT 10SM OVC018 03/01 A2996 RMK AO2 SLP156 T00280011 10039 20011 53018

More Conditions Fewer Conditions

Pressure 29.99 in
Visibility 10.0 miles
Clouds Overcast 1800 ft
Windchill 31 °F
Dew Point 31 °F
Humidity 98%
Rainfall 0.20 in
Snow Depth Not available.
UV 0.0 out of 12
Pollen .10 out of 12
Air Quality Not available.
Flu Activity Not available.
METAR KOMK 192353Z AUTO 11004KT 10SM OVC018 03/01 A2996 RMK AO2 SLP156 T00280011 10039 20011 53018

More Conditions Fewer Conditions

10-Day Weather Forecast

Almanac

Astronomy

Dec. 19, 2014 Rise Set
Actual Time
Civil Twilight
Nautical Twilight
Astronomical Twilight
Moon
Length of Visible Light
Length of Day
Tomorrow will be .
, % of the Moon is Illuminated

Today's Extremes

State Highs State Lows

Community

WunderPhotos

Upload Photos

1,779,084 photos uploaded!

WunderBlogs® & News

Nearby

Air Quality

  Air Quality AQ Index Pollutant
Not available.

Snow Depth

Station Depth Elevation

Earthquake Activity

City Distance Mag. Time & Date
Minimum magnitude displayed is 2.5.

Coastal Water Temperatures

Place Temperature

Nearby Weather Stations